Time;durP1;ratioP1;P1;durP2;ratioP2;P2;SDS_P1;SDS_P2;PMS_P1;PMS_P2;Temp;Humidity;BMP_temperature;BMP_pressure;BME280_temperature;BME280_humidity;BME280_pressure;Samples;Min_cycle;Max_cycle;Signal;HPM_P1;HPM_P2
2021/07/08 00:01:07;;;;;;;;;;;;;;;20.64;57.03;100967.19;5058841;28;1018;-37
2021/07/08 00:03:33;;;;;;;;;;;;;;;20.84;57.05;100964.16;5053205;28;898;-44
2021/07/08 00:05:58;;;;;;;;;;;;;;;21.02;57.23;100959.75;5057589;28;1909;-37
2021/07/08 00:08:24;;;;;;;;;;;;;;;21.01;57.95;100960.06;5045655;28;1251;-38
2021/07/08 00:10:51;;;;;;;;;;;;;;;21.08;57.79;100954.97;5042494;28;1282;-40
2021/07/08 00:13:17;;;;;;;;;;;;;;;21.22;57.73;100957.81;5057907;28;1267;-38
2021/07/08 00:15:42;;;;;;;;;;;;;;;21.29;57.77;100969.31;5052665;28;1187;-37
2021/07/08 00:18:09;;;;;;;;;;;;;;;21.50;57.51;100963.44;5038484;28;836;-43
2021/07/08 00:20:34;;;;;;;;;;;;;;;21.44;57.80;100965.47;5037847;28;940;-38
2021/07/08 00:22:59;;;;;;;;;;;;;;;21.49;57.68;100961.78;5038761;28;836;-37
2021/07/08 00:25:26;;;;;;;;;;;;;;;21.17;58.76;100961.47;5038243;28;1914;-38
2021/07/08 00:27:51;;;;;;;;;;;;;;;21.12;59.21;100963.50;5043614;28;1175;-38
2021/07/08 00:30:18;;;;;;;;;;;;;;;20.75;57.97;100965.13;5058424;28;755;-38
2021/07/08 00:32:44;;;;;;;;;;;;;;;20.99;59.84;100965.09;5040487;28;811;-38
2021/07/08 00:35:10;;;;;;;;;;;;;;;21.42;58.64;100967.75;5057511;28;1019;-38
2021/07/08 00:37:35;;;;;;;;;;;;;;;21.55;58.43;100959.81;5058396;28;780;-38
2021/07/08 00:40:00;;;;;;;;;;;;;;;21.67;58.41;100963.75;5057987;28;748;-40
2021/07/08 00:42:26;;;;;;;;;;;;;;;21.86;58.12;100971.16;5058166;28;788;-38
2021/07/08 00:44:51;;;;;;;;;;;;;;;21.43;59.57;100972.13;5057682;28;1913;-38
2021/07/08 00:47:17;;;;;;;;;;;;;;;21.22;60.62;100962.53;5058002;28;779;-38
2021/07/08 00:49:42;;;;;;;;;;;;;;;20.91;59.76;100965.75;5057382;28;963;-37
2021/07/08 00:52:08;;;;;;;;;;;;;;;20.49;60.51;100969.03;5039741;28;896;-37
2021/07/08 00:54:33;;;;;;;;;;;;;;;20.78;59.40;100973.66;5057658;28;1168;-37
2021/07/08 00:56:58;;;;;;;;;;;;;;;20.84;58.31;100979.94;5057360;28;824;-42
2021/07/08 00:59:24;;;;;;;;;;;;;;;20.92;58.19;100973.75;5057555;28;760;-37
2021/07/08 01:01:50;;;;;;;;;;;;;;;21.16;57.55;100976.44;5057750;28;824;-37
2021/07/08 01:04:15;;;;;;;;;;;;;;;21.24;57.43;100982.41;5039155;28;1913;-38
2021/07/08 01:06:44;;;;;;;;;;;;;;;21.35;57.02;100978.38;5057653;28;794;-43
2021/07/08 01:09:10;;;;;;;;;;;;;;;21.33;57.20;100975.88;5058099;28;744;-38
2021/07/08 01:11:36;;;;;;;;;;;;;;;21.42;56.82;100978.81;5057146;28;743;-37
2021/07/08 01:14:01;;;;;;;;;;;;;;;21.20;57.59;100977.47;5057524;28;751;-38
2021/07/08 01:16:28;;;;;;;;;;;;;;;21.27;57.41;100976.28;5057333;28;748;-38
2021/07/08 01:18:53;;;;;;;;;;;;;;;21.49;56.85;100976.47;5051599;28;995;-38
2021/07/08 01:21:20;;;;;;;;;;;;;;;21.24;57.50;100979.63;5037310;28;784;-38
2021/07/08 01:23:45;;;;;;;;;;;;;;;;;;5037228;28;847;-38
2021/07/08 01:26:10;;;;;;;;;;;;;;;21.30;57.52;100975.69;5036918;28;1914;-37
2021/07/08 01:28:36;;;;;;;;;;;;;;;21.07;58.35;100981.00;5037097;28;745;-43
2021/07/08 01:31:01;;;;;;;;;;;;;;;20.79;58.30;100982.75;5020021;28;1234;-39
2021/07/08 01:33:26;;;;;;;;;;;;;;;20.34;59.98;100977.50;5038357;28;960;-43
2021/07/08 01:35:52;;;;;;;;;;;;;;;20.99;58.69;100981.69;5056826;28;870;-38
2021/07/08 01:38:17;;;;;;;;;;;;;;;21.25;58.56;100973.81;5057483;28;756;-38
2021/07/08 01:40:43;;;;;;;;;;;;;;;21.40;58.70;100981.03;5056543;28;843;-38
2021/07/08 01:43:08;;;;;;;;;;;;;;;21.61;58.51;100981.53;5056993;28;779;-38
2021/07/08 01:45:33;;;;;;;;;;;;;;;21.76;58.44;100979.66;5057009;28;1910;-38
2021/07/08 01:47:59;;;;;;;;;;;;;;;21.38;60.01;100983.28;5056283;28;759;-44
2021/07/08 01:50:24;;;;;;;;;;;;;;;21.44;60.15;100992.34;5056712;28;950;-38
2021/07/08 01:52:51;;;;;;;;;;;;;;;20.83;59.43;100990.19;5056731;28;1215;-38
2021/07/08 01:55:17;;;;;;;;;;;;;;;20.75;61.02;100988.09;5056007;28;831;-38
2021/07/08 01:57:42;;;;;;;;;;;;;;;21.30;61.80;100992.28;5056746;28;779;-38
2021/07/08 02:00:09;;;;;;;;;;;;;;;21.79;60.01;100987.34;5056453;28;752;-43
2021/07/08 02:02:37;;;;;;;;;;;;;;;21.81;59.85;100988.69;5055651;28;657;-38
2021/07/08 02:05:03;;;;;;;;;;;;;;;22.05;59.07;100999.59;5045040;28;1921;-38
2021/07/08 02:07:28;;;;;;;;;;;;;;;21.80;59.70;100992.56;5036329;28;823;-38
2021/07/08 02:09:54;;;;;;;;;;;;;;;21.45;61.11;100994.00;5035809;28;827;-38
2021/07/08 02:12:19;;;;;;;;;;;;;;;21.36;60.03;100999.34;5036427;28;764;-38
2021/07/08 02:14:44;;;;;;;;;;;;;;;20.80;59.31;101004.59;5036192;28;868;-38
2021/07/08 02:17:10;;;;;;;;;;;;;;;21.31;61.63;101005.00;5035652;28;836;-44
2021/07/08 02:19:35;;;;;;;;;;;;;;;21.65;61.33;100998.38;5047095;28;999;-38
2021/07/08 02:22:01;;;;;;;;;;;;;;;21.86;60.21;101002.41;5056202;28;871;-42
2021/07/08 02:24:26;;;;;;;;;;;;;;;21.97;59.97;100999.47;5055583;28;1914;-38
2021/07/08 02:26:52;;;;;;;;;;;;;;;21.82;60.16;100998.63;5056061;28;795;-38
2021/07/08 02:29:17;;;;;;;;;;;;;;;21.44;61.37;100990.38;5055746;28;852;-44
2021/07/08 02:31:43;;;;;;;;;;;;;;;21.37;60.27;100998.25;5055764;28;791;-42
2021/07/08 02:34:08;;;;;;;;;;;;;;;21.04;59.74;100995.41;5059311;28;1010;-38
2021/07/08 02:36:34;;;;;;;;;;;;;;;21.26;61.98;100994.81;5062575;28;807;-38
2021/07/08 02:38:59;;;;;;;;;;;;;;;21.52;60.45;100995.25;5062340;28;808;-38
2021/07/08 02:41:25;;;;;;;;;;;;;;;21.80;59.74;100986.22;5062567;28;744;-44
2021/07/08 02:43:51;;;;;;;;;;;;;;;21.91;59.65;100995.16;5044422;28;876;-43
2021/07/08 02:46:16;;;;;;;;;;;;;;;21.53;59.89;100990.53;5062456;28;1964;-44
2021/07/08 02:48:41;;;;;;;;;;;;;;;21.17;59.36;100994.66;5062147;28;962;-38
2021/07/08 02:51:07;;;;;;;;;;;;;;;20.58;58.24;100994.06;5062497;28;851;-38
2021/07/08 02:53:32;;;;;;;;;;;;;;;20.37;58.39;100999.03;5061951;28;1024;-44
2021/07/08 02:55:58;;;;;;;;;;;;;;;20.57;56.16;100992.41;5062448;28;838;-42
2021/07/08 02:58:23;;;;;;;;;;;;;;;20.35;55.57;100995.72;5062170;28;839;-43
2021/07/08 03:00:49;;;;;;;;;;;;;;;20.44;54.80;100993.13;5062698;28;775;-39
2021/07/08 03:03:15;;;;;;;;;;;;;;;20.42;54.37;101001.72;5062187;28;851;-39
2021/07/08 03:05:41;;;;;;;;;;;;;;;20.62;54.69;100999.81;5045532;28;1918;-39
2021/07/08 03:08:06;;;;;;;;;;;;;;;20.58;56.21;101001.53;5042379;28;759;-39
2021/07/08 03:10:32;;;;;;;;;;;;;;;20.96;56.39;101019.03;5042082;28;748;-38
2021/07/08 03:12:58;;;;;;;;;;;;;;;21.02;57.06;101012.28;5042344;28;732;-40
2021/07/08 03:15:23;;;;;;;;;;;;;;;21.28;57.12;101011.09;5042442;28;819;-38
2021/07/08 03:17:49;;;;;;;;;;;;;;;21.44;57.21;101012.50;5041978;28;768;-40
2021/07/08 03:20:19;;;;;;;;;;;;;;;21.36;57.74;101013.19;5058124;28;1002;-40
2021/07/08 03:22:44;;;;;;;;;;;;;;;21.56;57.58;101005.72;5044954;28;855;-39
2021/07/08 03:25:10;;;;;;;;;;;;;;;21.80;57.07;101011.94;5061894;28;1913;-39
2021/07/08 03:27:36;;;;;;;;;;;;;;;21.78;57.51;101019.72;5062255;28;779;-42
2021/07/08 03:30:04;;;;;;;;;;;;;;;21.59;58.24;101010.63;5062344;28;909;-39
2021/07/08 03:32:29;;;;;;;;;;;;;;;21.16;59.89;101015.13;5061574;28;790;-39
2021/07/08 03:34:55;;;;;;;;;;;;;;;21.24;58.71;101010.88;5061872;28;962;-39
2021/07/08 03:37:20;;;;;;;;;;;;;;;20.74;60.09;101013.25;5062296;28;844;-39
2021/07/08 03:39:46;;;;;;;;;;;;;;;21.23;60.35;101019.50;5061300;28;788;-40
2021/07/08 03:42:11;;;;;;;;;;;;;;;21.48;59.13;101021.84;5044563;28;1092;-45
2021/07/08 03:44:36;;;;;;;;;;;;;;;21.64;58.80;101019.72;5061753;28;1969;-40
2021/07/08 03:47:02;;;;;;;;;;;;;;;21.66;58.92;101027.69;5058383;28;795;-38
2021/07/08 03:49:27;;;;;;;;;;;;;;;21.73;58.58;101022.59;5058430;28;983;-41
2021/07/08 03:51:53;;;;;;;;;;;;;;;21.51;59.26;101020.44;5041170;28;2479;-39
2021/07/08 03:54:19;;;;;;;;;;;;;;;21.34;60.22;101029.28;5036396;28;3035;-48
2021/07/08 03:56:44;;;;;;;;;;;;;;;21.27;60.25;101028.84;5055613;28;2354;-42
2021/07/08 03:59:10;;;;;;;;;;;;;;;20.83;58.93;101034.41;5058345;28;736;-43
2021/07/08 04:01:35;;;;;;;;;;;;;;;21.15;60.88;101032.88;5058391;28;802;-39
2021/07/08 04:04:00;;;;;;;;;;;;;;;21.52;60.05;101039.53;5055210;28;1030;-41
2021/07/08 04:06:26;;;;;;;;;;;;;;;21.64;59.48;101047.38;5038503;28;1902;-39
2021/07/08 04:08:51;;;;;;;;;;;;;;;21.55;57.72;101049.19;5038020;28;795;-41
2021/07/08 04:11:17;;;;;;;;;;;;;;;21.56;59.25;101044.44;5038586;28;743;-41
2021/07/08 04:13:42;;;;;;;;;;;;;;;21.32;60.25;101043.41;5038580;28;813;-42
2021/07/08 04:16:08;;;;;;;;;;;;;;;21.12;61.09;101050.03;5037984;28;1391;-42
2021/07/08 04:18:33;;;;;;;;;;;;;;;20.75;59.84;101051.63;5040225;28;932;-42
2021/07/08 04:20:59;;;;;;;;;;;;;;;21.10;61.65;101051.47;5058260;28;739;-46
2021/07/08 04:23:24;;;;;;;;;;;;;;;21.60;60.03;101051.03;5057457;28;841;-42
2021/07/08 04:25:49;;;;;;;;;;;;;;;21.61;59.70;101060.97;5058340;28;1910;-42
2021/07/08 04:28:15;;;;;;;;;;;;;;;21.81;59.25;101059.81;5058332;28;794;-43
2021/07/08 04:30:40;;;;;;;;;;;;;;;21.31;60.74;101063.06;5056057;28;1103;-42
2021/07/08 04:33:06;;;;;;;;;;;;;;;21.24;61.16;101066.19;5058143;28;815;-42
2021/07/08 04:35:40;;;;;;;;;;;;;;;20.87;59.80;101066.97;5057189;28;971;-43
2021/07/08 04:38:10;;;;;;;;;;;;;;;20.80;60.69;101067.31;5057680;28;846;-43
2021/07/08 04:40:35;;;;;;;;;;;;;;;21.36;61.52;101071.28;5057771;28;786;-44
2021/07/08 04:43:01;;;;;;;;;;;;;;;21.53;60.77;101068.84;5057855;28;831;-44
2021/07/08 04:45:26;;;;;;;;;;;;;;;21.65;60.33;101067.56;5057401;28;1959;-45
2021/07/08 04:47:52;;;;;;;;;;;;;;;21.95;59.23;101071.78;5057763;28;796;-42
2021/07/08 04:50:18;;;;;;;;;;;;;;;21.35;61.10;101069.66;5057044;28;990;-41
2021/07/08 04:52:44;;;;;;;;;;;;;;;21.35;61.36;101067.69;5057615;28;1172;-44
2021/07/08 04:55:10;;;;;;;;;;;;;;;20.90;60.54;101067.22;5057586;28;772;-44
2021/07/08 04:57:36;;;;;;;;;;;;;;;20.93;61.84;101071.31;5056953;28;748;-41
2021/07/08 05:00:03;;;;;;;;;;;;;;;21.37;61.55;101070.16;5057343;28;807;-41
2021/07/08 05:02:28;;;;;;;;;;;;;;;21.60;60.60;101067.63;5057262;28;854;-40
2021/07/08 05:04:53;;;;;;;;;;;;;;;21.95;59.55;101065.41;5047036;28;1910;-41
2021/07/08 05:07:19;;;;;;;;;;;;;;;21.60;59.98;101065.72;5037209;28;839;-43
2021/07/08 05:09:44;;;;;;;;;;;;;;;21.43;60.92;101065.38;5037335;28;748;-41
2021/07/08 05:12:10;;;;;;;;;;;;;;;21.09;60.33;101069.19;5037491;28;775;-41
2021/07/08 05:14:35;;;;;;;;;;;;;;;20.70;60.13;101073.81;5036830;28;815;-42
2021/07/08 05:17:01;;;;;;;;;;;;;;;21.00;61.92;101071.78;5037422;28;795;-40
2021/07/08 05:19:27;;;;;;;;;;;;;;;21.49;62.28;101083.53;5046464;28;964;-42
2021/07/08 05:21:52;;;;;;;;;;;;;;;21.83;61.06;101077.78;5056850;28;847;-40
2021/07/08 05:24:20;;;;;;;;;;;;;;;22.01;60.44;101083.59;5039168;28;1910;-40
2021/07/08 05:26:46;;;;;;;;;;;;;;;21.64;60.74;101082.50;5039842;28;831;-42
2021/07/08 05:29:11;;;;;;;;;;;;;;;21.39;62.62;101087.28;5056472;28;794;-41
2021/07/08 05:31:37;;;;;;;;;;;;;;;21.16;61.73;101087.03;5056995;28;850;-41
2021/07/08 05:34:02;;;;;;;;;;;;;;;20.70;60.37;101082.09;5056620;28;967;-41
2021/07/08 05:36:27;;;;;;;;;;;;;;;21.33;62.54;101088.47;5038860;28;836;-41
2021/07/08 05:38:53;;;;;;;;;;;;;;;21.60;62.92;101096.16;5057057;28;815;-40
2021/07/08 05:41:18;;;;;;;;;;;;;;;21.83;62.16;101094.38;5056517;28;839;-42
2021/07/08 05:43:44;;;;;;;;;;;;;;;21.94;61.54;101097.81;5056583;28;863;-42
2021/07/08 05:46:09;;;;;;;;;;;;;;;21.53;62.97;101098.44;5056502;28;1971;-42
2021/07/08 05:48:35;;;;;;;;;;;;;;;21.52;63.20;101094.06;5056106;28;967;-42
2021/07/08 05:51:00;;;;;;;;;;;;;;;21.37;61.24;101093.09;5056502;28;739;-41
2021/07/08 05:53:25;;;;;;;;;;;;;;;20.70;58.85;101098.66;5055932;28;1174;-43
2021/07/08 05:55:51;;;;;;;;;;;;;;;21.18;60.04;101095.88;5057002;28;834;-40
2021/07/08 05:58:16;;;;;;;;;;;;;;;21.32;61.22;101092.34;5056392;28;806;-43
2021/07/08 06:00:42;;;;;;;;;;;;;;;21.48;59.87;101092.97;5056030;28;783;-42
2021/07/08 06:03:07;;;;;;;;;;;;;;;21.48;58.85;101099.31;5056609;28;850;-42
2021/07/08 06:05:33;;;;;;;;;;;;;;;21.66;57.45;101099.66;5040353;28;1910;-42
2021/07/08 06:07:58;;;;;;;;;;;;;;;21.46;57.24;101096.03;5035909;28;804;-42
2021/07/08 06:10:23;;;;;;;;;;;;;;;21.36;57.20;101099.78;5036021;28;814;-41
2021/07/08 06:12:49;;;;;;;;;;;;;;;21.32;57.19;101103.41;5036322;28;743;-44
2021/07/08 06:15:14;;;;;;;;;;;;;;;21.34;56.90;101102.00;5036293;28;823;-41
2021/07/08 06:17:40;;;;;;;;;;;;;;;21.30;56.70;101100.13;5036759;28;842;-43
2021/07/08 06:20:07;;;;;;;;;;;;;;;21.39;56.40;101098.34;5050544;28;920;-41
2021/07/08 06:22:33;;;;;;;;;;;;;;;21.51;56.12;101098.72;5055879;28;803;-41
2021/07/08 06:24:58;;;;;;;;;;;;;;;21.48;56.02;101099.31;5056294;28;1894;-42
2021/07/08 06:27:23;;;;;;;;;;;;;;;21.44;56.14;101098.28;5055979;28;751;-41
2021/07/08 06:29:49;;;;;;;;;;;;;;;21.41;56.34;101100.84;5055818;28;772;-41
2021/07/08 06:32:16;;;;;;;;;;;;;;;21.16;57.13;101095.34;5055712;28;780;-41
2021/07/08 06:34:41;;;;;;;;;;;;;;;21.16;57.22;101091.75;5055973;28;1022;-41
2021/07/08 06:37:07;;;;;;;;;;;;;;;20.61;57.37;101097.66;5055823;28;823;-41
2021/07/08 06:39:32;;;;;;;;;;;;;;;20.76;58.84;101093.91;5055947;28;767;-41
2021/07/08 06:41:58;;;;;;;;;;;;;;;20.95;58.53;101096.72;5055806;28;858;-40
2021/07/08 06:44:23;;;;;;;;;;;;;;;21.47;58.44;101091.31;5055464;28;1913;-40
2021/07/08 06:46:51;;;;;;;;;;;;;;;21.65;59.60;101090.50;5055972;28;950;-41
2021/07/08 06:49:17;;;;;;;;;;;;;;;21.60;60.76;101093.38;5055785;28;955;-42
2021/07/08 06:51:42;;;;;;;;;;;;;;;21.42;61.98;101089.47;5055458;28;925;-41
2021/07/08 06:54:07;;;;;;;;;;;;;;;21.40;60.58;101091.69;5055761;28;1482;-42
2021/07/08 06:56:33;;;;;;;;;;;;;;;20.80;58.85;101081.16;5055904;28;751;-41
2021/07/08 06:58:58;;;;;;;;;;;;;;;21.36;61.85;101085.09;5055251;28;768;-41
2021/07/08 07:01:24;;;;;;;;;;;;;;;21.84;63.13;101090.50;5055564;28;788;-43
2021/07/08 07:03:49;;;;;;;;;;;;;;;22.10;63.47;101087.28;5054393;28;971;-41
2021/07/08 07:06:15;;;;;;;;;;;;;;;22.01;63.70;101086.34;5035497;28;1917;-41
2021/07/08 07:08:41;;;;;;;;;;;;;;;21.69;64.56;101091.56;5036019;28;828;-41
2021/07/08 07:11:06;;;;;;;;;;;;;;;21.70;64.42;101097.94;5035580;28;771;-43
2021/07/08 07:13:32;;;;;;;;;;;;;;;21.30;59.74;101087.13;5035500;28;799;-42
2021/07/08 07:15:57;;;;;;;;;;;;;;;20.81;58.82;101086.38;5035661;28;736;-42
2021/07/08 07:18:24;;;;;;;;;;;;;;;21.08;60.58;101086.88;5036575;28;983;-40
2021/07/08 07:20:49;;;;;;;;;;;;;;;21.17;60.18;101080.41;5057749;28;788;-43
2021/07/08 07:23:15;;;;;;;;;;;;;;;21.12;58.10;101080.44;5058964;28;859;-41
2021/07/08 07:25:40;;;;;;;;;;;;;;;21.01;56.15;101085.31;5059393;28;1976;-41
2021/07/08 07:28:07;;;;;;;;;;;;;;;20.89;55.05;101087.69;5058909;28;834;-42
2021/07/08 07:30:32;;;;;;;;;;;;;;;20.79;55.96;101094.16;5059263;28;839;-41
2021/07/08 07:32:58;;;;;;;;;;;;;;;21.24;57.92;101087.47;5059215;28;843;-42
2021/07/08 07:35:24;;;;;;;;;;;;;;;21.68;59.09;101100.16;5058193;28;962;-42
2021/07/08 07:37:52;;;;;;;;;;;;;;;21.91;59.73;101109.50;5059090;28;719;-41
2021/07/08 07:40:17;;;;;;;;;;;;;;;21.56;62.53;101106.16;5059432;28;763;-41
2021/07/08 07:42:43;;;;;;;;;;;;;;;21.57;63.57;101112.50;5058492;28;812;-41
2021/07/08 07:45:09;;;;;;;;;;;;;;;21.18;61.29;101109.69;5059039;28;1973;-43
2021/07/08 07:47:34;;;;;;;;;;;;;;;20.91;58.47;101104.78;5059148;28;799;-41
2021/07/08 07:50:00;;;;;;;;;;;;;;;21.53;62.32;101113.13;5057959;28;931;-41
2021/07/08 07:52:25;;;;;;;;;;;;;;;21.95;63.65;101115.25;5059316;28;1070;-41
2021/07/08 07:54:50;;;;;;;;;;;;;;;22.18;64.30;101125.38;5059182;28;819;-41
2021/07/08 07:57:16;;;;;;;;;;;;;;;22.41;64.51;101119.19;5058311;28;751;-43
2021/07/08 07:59:41;;;;;;;;;;;;;;;21.92;64.67;101118.63;5058801;28;771;-41
2021/07/08 08:02:16;;;;;;;;;;;;;;;21.83;65.31;101119.28;5058432;28;802;-43
2021/07/08 08:05:18;;;;;;;;;;;;;;;21.09;61.67;101116.19;5049638;28;1910;-42
2021/07/08 08:10:23;;;;;;;;;;;;;;;20.69;58.19;101121.88;5038660;28;795;-40
2021/07/08 08:12:48;;;;;;;;;;;;;;;20.78;56.86;101124.84;5038290;28;824;-41
2021/07/08 08:15:15;;;;;;;;;;;;;;;20.62;57.01;101119.47;5038525;28;1131;-41
2021/07/08 08:17:41;;;;;;;;;;;;;;;20.83;57.32;101122.84;5057419;28;863;-40
2021/07/08 08:20:07;;;;;;;;;;;;;;;21.13;57.52;101120.00;5039530;28;985;-41
2021/07/08 08:22:32;;;;;;;;;;;;;;;21.13;58.11;101125.53;5058249;28;752;-41
2021/07/08 08:24:58;;;;;;;;;;;;;;;21.28;58.18;101124.50;5058261;28;1930;-42
2021/07/08 08:27:23;;;;;;;;;;;;;;;21.46;57.89;101122.88;5057681;28;804;-41
2021/07/08 08:29:48;;;;;;;;;;;;;;;21.42;58.25;101132.88;5058448;28;751;-41
2021/07/08 08:32:14;;;;;;;;;;;;;;;21.39;58.27;101134.28;5056972;28;952;-41
2021/07/08 08:34:39;;;;;;;;;;;;;;;20.76;60.57;101133.44;5057306;28;1022;-40
2021/07/08 08:37:05;;;;;;;;;;;;;;;20.78;60.12;101133.16;5057981;28;743;-41
2021/07/08 08:39:30;;;;;;;;;;;;;;;20.83;60.50;101136.66;5057777;28;775;-41
2021/07/08 08:41:56;;;;;;;;;;;;;;;21.17;59.03;101138.47;5057533;28;791;-39
2021/07/08 08:44:21;;;;;;;;;;;;;;;21.37;58.71;101139.31;5039649;28;1910;-41
2021/07/08 08:46:47;;;;;;;;;;;;;;;21.23;59.20;101143.94;5058409;28;833;-40
2021/07/08 08:49:12;;;;;;;;;;;;;;;21.40;58.80;101146.22;5039028;28;1291;-40
2021/07/08 08:51:38;;;;;;;;;;;;;;;21.39;58.80;101139.81;5058173;28;726;-41
2021/07/08 08:54:03;;;;;;;;;;;;;;;20.97;60.08;101144.25;5039709;28;1216;-39
2021/07/08 08:56:29;;;;;;;;;;;;;;;20.81;60.00;101147.19;5057331;28;756;-42
2021/07/08 08:58:56;;;;;;;;;;;;;;;20.85;60.73;101147.44;5039269;28;849;-39
2021/07/08 09:01:21;;;;;;;;;;;;;;;21.14;59.46;101143.75;5057588;28;752;-42
2021/07/08 09:03:47;;;;;;;;;;;;;;;21.23;59.37;101157.78;5055892;28;1018;-40
2021/07/08 09:06:13;;;;;;;;;;;;;;;21.42;58.61;101155.00;5037051;28;1909;-41
2021/07/08 09:08:39;;;;;;;;;;;;;;;21.42;58.48;101161.38;5037490;28;696;-42
2021/07/08 09:11:12;;;;;;;;;;;;;;;21.26;58.43;101173.75;5037353;28;868;-41
2021/07/08 09:13:57;;;;;;;;;;;;;;;20.73;60.53;101166.34;5018974;28;893;-41
2021/07/08 09:16:23;;;;;;;;;;;;;;;20.49;60.97;101172.63;5037395;28;831;-40
2021/07/08 09:18:58;;;;;;;;;;;;;;;21.05;59.44;101171.25;5040796;28;980;-41
2021/07/08 09:21:24;;;;;;;;;;;;;;;21.14;59.04;101172.25;5057043;28;764;-41
2021/07/08 09:24:08;;;;;;;;;;;;;;;21.19;58.64;101177.69;5056994;28;795;-40
2021/07/08 09:26:37;;;;;;;;;;;;;;;21.45;57.92;101174.63;5038676;28;1914;-41
2021/07/08 09:29:08;;;;;;;;;;;;;;;21.45;58.08;101171.84;5038531;28;818;-40
2021/07/08 09:31:34;;;;;;;;;;;;;;;21.34;58.47;101160.09;5038780;28;819;-44
2021/07/08 09:34:15;;;;;;;;;;;;;;;21.33;58.86;101163.16;5056282;28;979;-41
2021/07/08 09:36:41;;;;;;;;;;;;;;;21.19;58.08;101152.81;5057041;28;810;-41
2021/07/08 09:39:07;;;;;;;;;;;;;;;20.34;58.31;101162.53;5056826;28;794;-39
2021/07/08 09:41:33;;;;;;;;;;;;;;;20.91;60.83;101154.53;5056455;28;755;-41
2021/07/08 09:43:58;;;;;;;;;;;;;;;21.39;60.03;101150.09;5056264;28;830;-42
2021/07/08 09:46:34;;;;;;;;;;;;;;;21.41;60.36;101145.91;5039192;28;1914;-41
2021/07/08 09:49:06;;;;;;;;;;;;;;;21.49;60.41;101155.47;5055780;28;1030;-40
2021/07/08 09:51:32;;;;;;;;;;;;;;;21.48;60.82;101157.41;5056860;28;747;-41
2021/07/08 09:54:06;;;;;;;;;;;;;;;21.33;61.15;101160.38;5038033;28;1244;-40
2021/07/08 09:56:43;;;;;;;;;;;;;;;20.84;60.22;101152.13;5056100;28;831;-39
2021/07/08 09:59:08;;;;;;;;;;;;;;;20.53;60.12;101168.16;5057173;28;810;-39
2021/07/08 10:01:34;;;;;;;;;;;;;;;21.23;62.29;101179.91;5056244;28;831;-39
2021/07/08 10:04:00;;;;;;;;;;;;;;;21.70;62.22;101176.25;5053089;28;951;-40
2021/07/08 10:06:25;;;;;;;;;;;;;;;21.76;61.87;101173.41;5036521;28;1914;-41
2021/07/08 10:08:51;;;;;;;;;;;;;;;21.93;60.92;101170.09;5035035;28;847;-40
2021/07/08 10:11:19;;;;;;;;;;;;;;;21.59;61.79;101165.59;5034122;28;839;-42
2021/07/08 10:13:44;;;;;;;;;;;;;;;21.38;62.59;101174.16;5036405;28;751;-40
2021/07/08 10:16:10;;;;;;;;;;;;;;;21.18;61.63;101166.94;5034434;28;857;-39
2021/07/08 10:18:39;;;;;;;;;;;;;;;20.80;59.28;101167.66;5037857;28;940;-40
2021/07/08 10:21:05;;;;;;;;;;;;;;;21.24;61.37;101165.78;5056288;28;814;-40
2021/07/08 10:23:34;;;;;;;;;;;;;;;21.55;62.61;101162.63;5055595;28;763;-40
2021/07/08 10:26:00;;;;;;;;;;;;;;;21.80;61.97;101157.84;5055593;28;1983;-41
2021/07/08 10:28:26;;;;;;;;;;;;;;;21.95;61.25;101151.22;5056035;28;831;-39
2021/07/08 10:30:52;;;;;;;;;;;;;;;21.72;61.84;101155.75;5038312;28;755;-45
2021/07/08 10:33:19;;;;;;;;;;;;;;;21.47;62.70;101152.19;5055489;28;971;-42
2021/07/08 10:35:45;;;;;;;;;;;;;;;21.20;61.69;101153.66;5055843;28;951;-43
2021/07/08 10:38:29;;;;;;;;;;;;;;;20.90;60.52;101154.84;5055856;28;811;-41
2021/07/08 10:40:55;;;;;;;;;;;;;;;21.40;62.30;101158.09;5055607;28;787;-39
2021/07/08 10:43:41;;;;;;;;;;;;;;;21.56;61.63;101160.66;5056096;28;755;-39
2021/07/08 10:46:07;;;;;;;;;;;;;;;21.86;60.63;101160.22;5055251;28;1988;-40
2021/07/08 10:48:39;;;;;;;;;;;;;;;22.11;59.99;101154.59;5054804;28;943;-41
2021/07/08 10:51:05;;;;;;;;;;;;;;;21.61;61.05;101157.84;5055652;28;927;-40
2021/07/08 10:53:38;;;;;;;;;;;;;;;21.35;62.57;101152.63;5055794;28;1203;-44
2021/07/08 10:56:04;;;;;;;;;;;;;;;21.20;61.17;101150.88;5058631;28;795;-40
2021/07/08 10:58:50;;;;;;;;;;;;;;;20.91;61.47;101150.97;5059701;28;799;-40
2021/07/08 11:01:22;;;;;;;;;;;;;;;21.61;62.31;101155.88;5059790;28;783;-41
2021/07/08 11:04:13;;;;;;;;;;;;;;;21.95;61.24;101159.53;5058268;28;1003;-39
2021/07/08 11:06:46;;;;;;;;;;;;;;;21.88;60.65;101152.44;5035705;28;1996;-39
2021/07/08 11:09:13;;;;;;;;;;;;;;;21.42;62.05;101155.84;5039657;28;768;-43
2021/07/08 11:11:38;;;;;;;;;;;;;;;21.24;62.15;101164.91;5021102;28;806;-39
2021/07/08 11:14:07;;;;;;;;;;;;;;;20.76;61.01;101166.59;5039722;28;803;-38
2021/07/08 11:16:42;;;;;;;;;;;;;;;21.04;62.82;101166.81;5039752;28;788;-38
2021/07/08 11:19:09;;;;;;;;;;;;;;;21.50;63.02;101163.50;5045879;28;1023;-41
2021/07/08 11:21:49;;;;;;;;;;;;;;;21.80;61.65;101166.97;5059500;28;827;-38
2021/07/08 11:24:21;;;;;;;;;;;;;;;21.81;60.01;101165.84;5059544;28;791;-39
2021/07/08 11:27:00;;;;;;;;;;;;;;;21.59;58.69;101179.44;5058793;28;2054;-38
2021/07/08 11:29:34;;;;;;;;;;;;;;;21.25;56.97;101161.88;5059245;28;759;-40
2021/07/08 11:32:01;;;;;;;;;;;;;;;20.83;56.24;101161.53;5058607;28;759;-39
2021/07/08 11:34:27;;;;;;;;;;;;;;;21.07;54.18;101160.72;5058955;28;978;-41
2021/07/08 11:36:55;;;;;;;;;;;;;;;20.98;53.24;101159.72;5059390;28;779;-39
2021/07/08 11:39:22;;;;;;;;;;;;;;;20.95;52.81;101168.59;5040572;28;806;-41
2021/07/08 11:41:48;;;;;;;;;;;;;;;20.54;54.10;101157.94;5059289;28;798;-39
2021/07/08 11:44:14;;;;;;;;;;;;;;;20.98;53.71;101165.25;5059093;28;767;-39
2021/07/08 11:46:40;;;;;;;;;;;;;;;21.03;55.01;101163.25;5040360;28;1997;-39
2021/07/08 11:49:05;;;;;;;;;;;;;;;21.03;56.50;101160.47;5058567;28;1145;-39
2021/07/08 11:51:32;;;;;;;;;;;;;;;21.26;56.65;101163.50;5040969;28;953;-41
2021/07/08 11:53:58;;;;;;;;;;;;;;;21.46;57.06;101162.44;5040575;28;1138;-44
2021/07/08 11:56:24;;;;;;;;;;;;;;;21.46;57.33;101151.38;5058941;28;748;-40
2021/07/08 11:58:49;;;;;;;;;;;;;;;21.20;58.32;101159.19;5058603;28;790;-40
2021/07/08 12:01:19;;;;;;;;;;;;;;;21.04;59.61;101161.28;5057548;28;858;-41
2021/07/08 12:03:48;;;;;;;;;;;;;;;20.66;60.12;101161.13;5057740;28;895;-42
2021/07/08 12:06:16;;;;;;;;;;;;;;;20.67;61.51;101157.25;5036948;28;1984;-39
2021/07/08 12:08:46;;;;;;;;;;;;;;;21.27;59.44;101156.06;5038118;28;740;-40
2021/07/08 12:11:16;;;;;;;;;;;;;;;21.26;59.57;101159.94;5038600;28;765;-40
2021/07/08 12:13:51;;;;;;;;;;;;;;;21.40;59.25;101155.31;5038376;28;795;-41
2021/07/08 12:16:19;;;;;;;;;;;;;;;21.45;59.20;101152.50;5038053;28;815;-39
2021/07/08 12:18:48;;;;;;;;;;;;;;;21.19;59.68;101154.75;5041721;28;925;-39
2021/07/08 12:21:16;;;;;;;;;;;;;;;20.96;61.29;101161.97;5058379;28;783;-40
2021/07/08 12:23:43;;;;;;;;;;;;;;;20.83;60.48;101167.06;5058021;28;812;-42
2021/07/08 12:26:28;;;;;;;;;;;;;;;20.38;60.33;101166.38;5058477;28;1975;-42
2021/07/08 12:29:12;;;;;;;;;;;;;;;21.06;61.55;101150.78;5057935;28;751;-39
2021/07/08 12:31:44;;;;;;;;;;;;;;;21.36;60.29;101154.25;5057624;28;815;-39
2021/07/08 12:34:10;;;;;;;;;;;;;;;21.44;60.03;101159.13;5057558;28;967;-39
2021/07/08 12:36:35;;;;;;;;;;;;;;;21.44;60.07;101152.78;5058017;28;783;-39
2021/07/08 12:39:01;;;;;;;;;;;;;;;21.28;60.48;101155.75;5057605;28;747;-39
2021/07/08 12:41:26;;;;;;;;;;;;;;;21.32;60.68;101159.59;5057894;28;795;-41
2021/07/08 12:43:52;;;;;;;;;;;;;;;21.29;59.79;101156.56;5057466;28;776;-40
2021/07/08 12:46:17;;;;;;;;;;;;;;;20.77;59.31;101154.41;5039777;28;1906;-38
2021/07/08 12:48:43;;;;;;;;;;;;;;;20.51;61.96;101165.69;5057066;28;978;-38
2021/07/08 12:51:09;;;;;;;;;;;;;;;21.30;62.56;101153.50;5057740;28;779;-39
2021/07/08 12:53:34;;;;;;;;;;;;;;;21.82;61.87;101159.16;5057257;28;1191;-41
2021/07/08 12:56:03;;;;;;;;;;;;;;;21.93;62.24;101154.31;5039534;28;917;-41